createdAt,value
2018-06-07T00:00:23.501Z,19.79
2018-06-07T00:01:23.471Z,19.74
2018-06-07T00:02:23.455Z,19.83
2018-06-07T00:03:23.424Z,19.75
2018-06-07T00:04:23.412Z,19.75
2018-06-07T00:05:23.387Z,19.74
2018-06-07T00:06:23.359Z,19.71
2018-06-07T00:07:23.350Z,19.72
2018-06-07T00:08:23.329Z,19.71
2018-06-07T00:09:23.298Z,19.65
2018-06-07T00:10:23.276Z,19.67
2018-06-07T00:11:23.265Z,19.67
2018-06-07T00:12:23.237Z,19.65
2018-06-07T00:13:23.211Z,19.68
2018-06-07T00:14:23.194Z,19.53
2018-06-07T00:15:23.174Z,19.61
2018-06-07T00:16:23.154Z,19.57
2018-06-07T00:17:23.135Z,19.55
2018-06-07T00:18:23.110Z,19.57
2018-06-07T00:19:23.081Z,19.61
2018-06-07T00:20:23.063Z,19.60
2018-06-07T00:21:23.041Z,19.55
2018-06-07T00:22:23.022Z,19.49
2018-06-07T00:23:22.995Z,19.55
2018-06-07T00:24:22.991Z,19.46
2018-06-07T00:25:22.952Z,19.55
2018-06-07T00:26:22.936Z,19.50
2018-06-07T00:27:22.903Z,19.56
2018-06-07T00:28:22.891Z,19.53
2018-06-07T00:29:22.860Z,19.52
2018-06-07T00:30:22.848Z,19.46
2018-06-07T00:31:22.822Z,19.42
2018-06-07T00:32:22.804Z,19.52
2018-06-07T00:33:22.783Z,19.49
2018-06-07T00:34:22.754Z,19.46
2018-06-07T00:35:22.735Z,19.42
2018-06-07T00:36:22.709Z,19.45
2018-06-07T00:37:22.692Z,19.42
2018-06-07T00:38:22.662Z,19.42
2018-06-07T00:39:22.720Z,19.46
2018-06-07T00:40:22.621Z,19.45
2018-06-07T00:41:22.608Z,19.38
2018-06-07T00:42:22.577Z,19.42
2018-06-07T00:43:22.569Z,19.43
2018-06-07T00:44:22.534Z,19.34
2018-06-07T00:45:22.523Z,19.40
2018-06-07T00:46:22.545Z,19.32
2018-06-07T00:47:22.475Z,19.34
2018-06-07T00:48:22.450Z,19.35
2018-06-07T00:49:22.436Z,19.35
2018-06-07T00:50:22.404Z,19.32
2018-06-07T00:51:22.381Z,19.34
2018-06-07T00:52:22.359Z,19.27
2018-06-07T00:53:22.340Z,19.27
2018-06-07T00:54:22.320Z,19.32
2018-06-07T00:55:22.297Z,19.19
2018-06-07T00:56:22.278Z,19.20
2018-06-07T00:57:22.258Z,19.23
2018-06-07T00:58:22.231Z,19.17
2018-06-07T00:59:22.221Z,19.20
2018-06-07T01:00:22.195Z,19.17
2018-06-07T01:01:22.166Z,19.20
2018-06-07T01:02:22.155Z,19.19
2018-06-07T01:03:22.123Z,19.31
2018-06-07T01:04:22.108Z,19.09
2018-06-07T01:05:22.080Z,19.25
2018-06-07T01:06:22.058Z,19.17
2018-06-07T01:07:22.032Z,19.19
2018-06-07T01:08:22.015Z,19.10
2018-06-07T01:09:21.992Z,19.17
2018-06-07T01:10:21.974Z,19.15
2018-06-07T01:11:21.948Z,19.16
2018-06-07T01:12:21.933Z,19.10
2018-06-07T01:13:21.900Z,19.09
2018-06-07T01:14:21.886Z,19.09
2018-06-07T01:15:21.864Z,19.19
2018-06-07T01:16:21.845Z,19.10
2018-06-07T01:17:21.811Z,19.15
2018-06-07T01:18:21.794Z,19.16
2018-06-07T01:19:21.792Z,19.16
2018-06-07T01:20:21.753Z,19.17
2018-06-07T01:21:21.740Z,19.17
2018-06-07T01:22:21.711Z,19.15
2018-06-07T01:23:21.685Z,19.16
2018-06-07T01:24:21.659Z,19.20
2018-06-07T01:25:21.640Z,19.17
2018-06-07T01:26:21.620Z,19.12
2018-06-07T01:27:21.592Z,19.15
2018-06-07T01:28:21.575Z,19.06
2018-06-07T01:29:21.552Z,19.16
2018-06-07T01:30:21.524Z,19.12
2018-06-07T01:31:21.505Z,19.20
2018-06-07T01:32:21.486Z,19.15
2018-06-07T01:33:21.472Z,19.20
2018-06-07T01:34:21.446Z,19.20
2018-06-07T01:35:21.417Z,19.19
2018-06-07T01:36:21.402Z,19.20
2018-06-07T01:37:21.376Z,19.23
2018-06-07T01:38:21.354Z,19.16
2018-06-07T01:39:21.329Z,19.20
2018-06-07T01:40:21.306Z,19.27
2018-06-07T01:41:21.291Z,19.20
2018-06-07T01:42:21.263Z,19.23
2018-06-07T01:43:21.252Z,19.15
2018-06-07T01:44:21.225Z,19.19
2018-06-07T01:45:21.194Z,19.23
2018-06-07T01:46:21.180Z,19.19
2018-06-07T01:47:21.156Z,19.13
2018-06-07T01:48:21.130Z,19.19
2018-06-07T01:49:21.112Z,19.10
2018-06-07T01:50:21.085Z,19.12
2018-06-07T01:51:21.071Z,19.20
2018-06-07T01:52:21.045Z,19.15
2018-06-07T01:53:21.027Z,19.17
2018-06-07T01:54:21.007Z,19.23
2018-06-07T01:55:20.972Z,19.09
2018-06-07T01:56:20.959Z,19.16
2018-06-07T01:57:20.938Z,19.16
2018-06-07T01:58:22.401Z,19.28
2018-06-07T01:59:21.513Z,19.20
2018-06-07T02:00:23.188Z,19.16
2018-06-07T02:01:22.237Z,19.17
2018-06-07T02:02:21.991Z,19.24
2018-06-07T02:03:20.809Z,19.32
2018-06-07T02:04:20.781Z,19.25
2018-06-07T02:05:20.762Z,19.20
2018-06-07T02:06:20.744Z,19.19
2018-06-07T02:07:20.715Z,19.20
2018-06-07T02:08:20.692Z,19.23
2018-06-07T02:09:20.673Z,19.28
2018-06-07T02:10:21.358Z,19.32
2018-06-07T02:11:20.627Z,19.23
2018-06-07T02:12:20.606Z,19.30
2018-06-07T02:13:20.581Z,19.28
2018-06-07T02:14:20.566Z,19.30
2018-06-07T02:15:20.536Z,19.24
2018-06-07T02:16:20.521Z,19.20
2018-06-07T02:17:20.488Z,19.20
2018-06-07T02:18:20.476Z,19.20
2018-06-07T02:19:20.444Z,19.27
2018-06-07T02:20:20.428Z,19.34
2018-06-07T02:21:20.406Z,19.28
2018-06-07T02:22:20.379Z,19.27
2018-06-07T02:23:20.359Z,19.28
2018-06-07T02:24:20.334Z,19.32
2018-06-07T02:25:20.320Z,19.32
2018-06-07T02:26:20.296Z,19.34
2018-06-07T02:27:20.275Z,19.24
2018-06-07T02:28:20.250Z,19.27
2018-06-07T02:29:20.231Z,19.19
2018-06-07T02:30:20.212Z,19.15
2018-06-07T02:31:20.188Z,19.20
2018-06-07T02:32:20.170Z,19.13
2018-06-07T02:33:20.140Z,19.20
2018-06-07T02:34:20.121Z,19.17
2018-06-07T02:35:20.102Z,19.15
2018-06-07T02:36:20.069Z,19.09
2018-06-07T02:37:20.062Z,19.12
2018-06-07T02:38:20.029Z,19.05
2018-06-07T02:39:20.016Z,19.05
2018-06-07T02:40:19.996Z,19.02
2018-06-07T02:41:19.966Z,19.07
2018-06-07T02:42:19.943Z,19.05
2018-06-07T02:43:19.923Z,19.06
2018-06-07T02:44:19.898Z,18.96
2018-06-07T02:45:19.882Z,18.97
2018-06-07T02:46:19.852Z,18.94
2018-06-07T02:47:19.836Z,18.91
2018-06-07T02:48:19.816Z,18.97
2018-06-07T02:49:19.786Z,18.97
2018-06-07T02:50:19.766Z,19.00
2018-06-07T02:51:19.743Z,18.97
2018-06-07T02:52:19.726Z,18.97
2018-06-07T02:53:19.698Z,19.02
2018-06-07T02:54:19.678Z,19.00
2018-06-07T02:55:19.654Z,18.96
2018-06-07T02:56:19.629Z,18.99
2018-06-07T02:57:19.619Z,18.99
2018-06-07T02:58:19.594Z,19.05
2018-06-07T02:59:19.563Z,18.96
2018-06-07T03:00:19.552Z,18.96
2018-06-07T03:01:19.619Z,18.93
2018-06-07T03:02:19.501Z,18.97
2018-06-07T03:03:19.477Z,18.94
2018-06-07T03:04:19.462Z,19.02
2018-06-07T03:05:19.432Z,18.89
2018-06-07T03:06:19.422Z,18.90
2018-06-07T03:07:19.395Z,18.89
2018-06-07T03:08:19.369Z,18.86
2018-06-07T03:09:19.343Z,18.84
2018-06-07T03:10:19.327Z,18.81
2018-06-07T03:11:19.302Z,18.84
2018-06-07T03:12:19.284Z,18.87
2018-06-07T03:13:19.256Z,18.90
2018-06-07T03:14:19.268Z,18.86
2018-06-07T03:15:19.215Z,18.86
2018-06-07T03:16:19.185Z,18.90
2018-06-07T03:17:19.172Z,18.87
2018-06-07T03:18:19.150Z,18.91
2018-06-07T03:19:19.124Z,18.90
2018-06-07T03:20:19.103Z,18.90
2018-06-07T03:21:19.080Z,18.93
2018-06-07T03:22:19.054Z,18.87
2018-06-07T03:23:19.039Z,18.91
2018-06-07T03:24:19.011Z,18.89
2018-06-07T03:25:18.996Z,18.89
2018-06-07T03:26:18.965Z,18.86
2018-06-07T03:27:18.949Z,18.91
2018-06-07T03:28:18.930Z,18.91
2018-06-07T03:29:18.905Z,18.86
2018-06-07T03:30:18.879Z,18.90
2018-06-07T03:31:18.857Z,18.86
2018-06-07T03:32:18.850Z,18.81
2018-06-07T03:33:18.806Z,18.89
2018-06-07T03:34:18.783Z,18.81
2018-06-07T03:35:18.770Z,18.90
2018-06-07T03:36:18.746Z,18.87
2018-06-07T03:37:18.721Z,18.93
2018-06-07T03:38:18.695Z,18.87
2018-06-07T03:39:18.678Z,18.84
2018-06-07T03:40:18.656Z,18.90
2018-06-07T03:41:18.632Z,18.86
2018-06-07T03:42:18.610Z,18.78
2018-06-07T03:43:18.589Z,18.75
2018-06-07T03:44:18.577Z,18.78
2018-06-07T03:45:18.538Z,18.89
2018-06-07T03:46:18.519Z,18.86
2018-06-07T03:47:18.506Z,18.87
2018-06-07T03:48:18.479Z,18.89
2018-06-07T03:49:18.455Z,18.91
2018-06-07T03:50:18.434Z,18.89
2018-06-07T03:51:18.553Z,18.87
2018-06-07T03:52:18.392Z,18.81
2018-06-07T03:53:18.366Z,18.93
2018-06-07T03:54:18.344Z,18.96
2018-06-07T03:55:18.371Z,18.72
2018-06-07T03:56:18.305Z,18.87
2018-06-07T03:57:18.273Z,18.79
2018-06-07T03:58:18.251Z,18.76
2018-06-07T03:59:18.234Z,18.76
2018-06-07T04:00:18.212Z,18.72
2018-06-07T04:01:18.189Z,18.79
2018-06-07T04:02:18.207Z,18.76
2018-06-07T04:03:18.139Z,18.87
2018-06-07T04:04:18.125Z,18.79
2018-06-07T04:05:18.093Z,18.90
2018-06-07T04:06:18.143Z,18.89
2018-06-07T04:07:18.056Z,18.94
2018-06-07T04:08:18.032Z,18.91
2018-06-07T04:09:18.007Z,18.90
2018-06-07T04:10:18.070Z,18.93
2018-06-07T04:11:17.980Z,18.90
2018-06-07T04:12:17.942Z,18.90
2018-06-07T04:13:17.916Z,18.86
2018-06-07T04:14:17.907Z,18.90
2018-06-07T04:15:17.875Z,18.84
2018-06-07T04:16:17.861Z,18.86
2018-06-07T04:17:17.826Z,18.94
2018-06-07T04:18:17.809Z,18.90
2018-06-07T04:19:17.790Z,18.87
2018-06-07T04:20:17.764Z,18.89
2018-06-07T04:21:17.747Z,18.81
2018-06-07T04:22:17.717Z,18.89
2018-06-07T04:23:17.698Z,18.86
2018-06-07T04:24:17.672Z,18.93
2018-06-07T04:25:17.661Z,18.86
2018-06-07T04:26:17.633Z,18.87
2018-06-07T04:27:17.601Z,18.93
2018-06-07T04:28:17.593Z,19.02
2018-06-07T04:29:17.558Z,19.05
2018-06-07T04:30:17.541Z,18.96
2018-06-07T04:31:17.517Z,19.09
2018-06-07T04:32:17.500Z,18.96
2018-06-07T04:33:17.472Z,18.99
2018-06-07T04:34:17.450Z,19.09
2018-06-07T04:35:17.450Z,19.09
2018-06-07T04:36:17.411Z,19.09
2018-06-07T04:37:17.383Z,19.12
2018-06-07T04:38:17.362Z,19.07
2018-06-07T04:39:17.345Z,19.06
2018-06-07T04:40:17.319Z,19.06
2018-06-07T04:41:17.294Z,19.06
2018-06-07T04:42:17.276Z,19.10
2018-06-07T04:43:17.262Z,19.02
2018-06-07T04:44:17.229Z,19.13
2018-06-07T04:45:17.206Z,19.06
2018-06-07T04:46:17.193Z,19.17
2018-06-07T04:47:17.163Z,19.19
2018-06-07T04:48:17.156Z,19.09
2018-06-07T04:49:17.117Z,19.23
2018-06-07T04:50:17.090Z,19.10
2018-06-07T04:51:17.081Z,19.30
2018-06-07T04:52:17.056Z,19.28
2018-06-07T04:53:17.040Z,19.27
2018-06-07T04:54:17.004Z,19.25
2018-06-07T04:55:17.001Z,19.32
2018-06-07T04:56:16.969Z,19.30
2018-06-07T04:57:16.936Z,19.27
2018-06-07T04:58:16.923Z,19.34
2018-06-07T04:59:16.904Z,19.32
2018-06-07T05:00:16.872Z,19.35
2018-06-07T05:01:16.853Z,19.25
2018-06-07T05:02:16.831Z,19.32
2018-06-07T05:03:16.805Z,19.35
2018-06-07T05:04:16.779Z,19.38
2018-06-07T05:05:16.767Z,19.45
2018-06-07T05:06:16.735Z,19.47
2018-06-07T05:07:16.722Z,19.52
2018-06-07T05:08:16.692Z,19.55
2018-06-07T05:09:16.677Z,19.53
2018-06-07T05:10:16.657Z,19.61
2018-06-07T05:11:16.625Z,19.56
2018-06-07T05:12:16.613Z,19.71
2018-06-07T05:13:16.661Z,19.72
2018-06-07T05:14:16.562Z,19.71
2018-06-07T05:15:16.541Z,19.86
2018-06-07T05:16:16.516Z,19.95
2018-06-07T05:17:16.495Z,20.02
2018-06-07T05:18:16.467Z,20.19
2018-06-07T05:19:16.451Z,20.20
2018-06-07T05:20:16.426Z,20.30
2018-06-07T05:21:16.413Z,20.32
2018-06-07T05:22:16.390Z,20.42
2018-06-07T05:23:16.359Z,20.42
2018-06-07T05:24:16.345Z,20.46
2018-06-07T05:25:16.323Z,20.53
2018-06-07T05:26:16.301Z,20.58
2018-06-07T05:27:16.282Z,20.57
2018-06-07T05:28:16.257Z,20.58
2018-06-07T05:29:16.231Z,20.56
2018-06-07T05:30:16.214Z,20.54
2018-06-07T05:31:16.194Z,20.57
2018-06-07T05:32:16.174Z,20.61
2018-06-07T05:33:16.179Z,20.60
2018-06-07T05:34:16.128Z,20.57
2018-06-07T05:35:16.104Z,20.60
2018-06-07T05:36:16.083Z,20.60
2018-06-07T05:37:16.055Z,20.64
2018-06-07T05:38:16.047Z,20.75
2018-06-07T05:39:16.018Z,20.67
2018-06-07T05:40:16.004Z,20.83
2018-06-07T05:41:15.972Z,20.82
2018-06-07T05:42:15.960Z,20.85
2018-06-07T05:43:15.925Z,20.94
2018-06-07T05:44:15.944Z,20.97
2018-06-07T05:45:15.898Z,20.97
2018-06-07T05:46:15.916Z,21.06
2018-06-07T05:47:15.919Z,21.03
2018-06-07T05:48:15.869Z,21.08
2018-06-07T05:49:15.801Z,21.18
2018-06-07T05:50:15.781Z,21.08
2018-06-07T05:51:15.756Z,21.11
2018-06-07T05:52:15.737Z,21.11
2018-06-07T05:53:15.721Z,21.08
2018-06-07T05:54:15.697Z,21.13
2018-06-07T05:55:15.666Z,21.12
2018-06-07T05:56:15.656Z,21.03
2018-06-07T05:57:15.626Z,21.01
2018-06-07T05:58:15.611Z,21.12
2018-06-07T05:59:15.615Z,21.00
2018-06-07T06:00:15.591Z,21.03
2018-06-07T06:01:15.544Z,21.13
2018-06-07T06:02:15.878Z,21.11
2018-06-07T06:03:15.500Z,21.21
2018-06-07T06:04:15.476Z,21.15
2018-06-07T06:05:15.472Z,21.06
2018-06-07T06:06:15.436Z,21.00
2018-06-07T06:07:15.537Z,21.04
2018-06-07T06:08:15.393Z,21.11
2018-06-07T06:09:15.383Z,21.18
2018-06-07T06:10:15.346Z,21.19
2018-06-07T06:11:15.366Z,21.33
2018-06-07T06:12:15.317Z,21.36
2018-06-07T06:13:15.331Z,21.40
2018-06-07T06:14:15.425Z,21.43
2018-06-07T06:15:15.241Z,21.52
2018-06-07T06:16:15.261Z,21.48
2018-06-07T06:17:15.198Z,21.49
2018-06-07T06:18:15.202Z,21.55
2018-06-07T06:19:15.154Z,21.62
2018-06-07T06:20:15.139Z,21.70
2018-06-07T06:21:15.160Z,21.82
2018-06-07T06:22:15.097Z,21.99
2018-06-07T06:23:15.079Z,22.04
2018-06-07T06:24:15.055Z,22.07
2018-06-07T06:25:15.040Z,22.07
2018-06-07T06:26:15.031Z,22.18
2018-06-07T06:27:14.993Z,22.16
2018-06-07T06:28:14.972Z,22.26
2018-06-07T06:29:14.951Z,22.36
2018-06-07T06:30:14.930Z,22.30
2018-06-07T06:31:14.910Z,22.41
2018-06-07T06:32:14.887Z,22.46
2018-06-07T06:33:14.863Z,22.60
2018-06-07T06:34:14.846Z,22.54
2018-06-07T06:35:14.827Z,22.52
2018-06-07T06:36:14.800Z,22.49
2018-06-07T06:37:14.789Z,22.46
2018-06-07T06:38:14.763Z,22.54
2018-06-07T06:39:14.746Z,22.55
2018-06-07T06:40:14.728Z,22.54
2018-06-07T06:41:14.703Z,22.49
2018-06-07T06:42:14.680Z,22.52
2018-06-07T06:43:14.658Z,22.63
2018-06-07T06:44:14.646Z,22.59
2018-06-07T06:45:14.698Z,22.63
2018-06-07T06:46:14.626Z,22.60
2018-06-07T06:47:14.576Z,22.64
2018-06-07T06:48:14.562Z,22.63
2018-06-07T06:49:14.564Z,22.51
2018-06-07T06:50:14.539Z,22.57
2018-06-07T06:51:14.498Z,22.49
2018-06-07T06:52:14.483Z,22.49
2018-06-07T06:53:14.449Z,22.63
2018-06-07T06:54:14.433Z,22.61
2018-06-07T06:55:14.533Z,22.59
2018-06-07T06:56:14.436Z,22.64
2018-06-07T06:57:14.433Z,22.70
2018-06-07T06:58:14.363Z,22.66
2018-06-07T06:59:14.331Z,22.76
2018-06-07T07:00:14.318Z,22.81
2018-06-07T07:01:14.290Z,22.88
2018-06-07T07:02:14.274Z,22.79
2018-06-07T07:03:14.250Z,22.81
2018-06-07T07:04:14.290Z,22.88
2018-06-07T07:05:14.211Z,22.86
2018-06-07T07:06:14.207Z,22.86
2018-06-07T07:07:14.177Z,22.88
2018-06-07T07:08:14.154Z,22.96
2018-06-07T07:09:14.191Z,23.01
2018-06-07T07:10:14.118Z,23.01
2018-06-07T07:11:14.091Z,23.09
2018-06-07T07:12:14.075Z,23.14
2018-06-07T07:13:14.054Z,23.10
2018-06-07T07:14:14.033Z,23.12
2018-06-07T07:15:14.017Z,23.19
2018-06-07T07:16:13.995Z,23.14
2018-06-07T07:17:13.967Z,23.07
2018-06-07T07:18:13.950Z,23.18
2018-06-07T07:19:13.934Z,23.12
2018-06-07T07:20:13.920Z,23.16
2018-06-07T07:21:13.890Z,23.10
2018-06-07T07:22:13.879Z,23.10
2018-06-07T07:23:13.867Z,23.10
2018-06-07T07:24:13.838Z,23.12
2018-06-07T07:25:13.817Z,23.09
2018-06-07T07:26:13.789Z,23.09
2018-06-07T07:27:13.780Z,23.12
2018-06-07T07:28:13.758Z,23.12
2018-06-07T07:29:13.737Z,23.16
2018-06-07T07:30:13.714Z,23.19
2018-06-07T07:31:13.702Z,23.35
2018-06-07T07:32:13.682Z,23.37
2018-06-07T07:33:13.652Z,23.45
2018-06-07T07:34:13.634Z,23.47
2018-06-07T07:35:13.623Z,23.50
2018-06-07T07:36:13.598Z,23.44
2018-06-07T07:37:13.575Z,23.53
2018-06-07T07:38:13.556Z,23.56
2018-06-07T07:39:13.542Z,23.64
2018-06-07T07:40:13.515Z,23.77
2018-06-07T07:41:14.174Z,23.70
2018-06-07T07:42:13.483Z,23.82
2018-06-07T07:43:13.456Z,23.96
2018-06-07T07:44:13.440Z,24.00
2018-06-07T07:45:13.430Z,24.02
2018-06-07T07:46:13.409Z,24.03
2018-06-07T07:47:13.379Z,24.09
2018-06-07T07:48:13.366Z,24.09
2018-06-07T07:49:13.342Z,24.19
2018-06-07T07:50:13.329Z,24.24
2018-06-07T07:51:13.301Z,24.33
2018-06-07T07:52:13.291Z,24.44
2018-06-07T07:53:13.268Z,24.40
2018-06-07T07:54:13.248Z,24.46
2018-06-07T07:55:13.230Z,24.45
2018-06-07T07:56:13.218Z,24.49
2018-06-07T07:57:13.186Z,24.45
2018-06-07T07:58:13.168Z,24.36
2018-06-07T07:59:13.156Z,24.45
2018-06-07T08:00:13.134Z,24.52
2018-06-07T08:01:13.115Z,24.54
2018-06-07T08:02:13.094Z,24.55
2018-06-07T08:03:13.079Z,24.49
2018-06-07T08:04:13.057Z,24.56
2018-06-07T08:05:13.039Z,24.48
2018-06-07T08:06:13.014Z,24.54
2018-06-07T08:07:13.010Z,24.51
2018-06-07T08:08:12.977Z,24.52
2018-06-07T08:09:12.965Z,24.54
2018-06-07T08:10:12.943Z,24.55
2018-06-07T08:11:12.924Z,24.64
2018-06-07T08:12:12.937Z,24.56
2018-06-07T08:13:12.883Z,24.52
2018-06-07T08:14:12.871Z,24.58
2018-06-07T08:15:12.870Z,24.58
2018-06-07T08:16:12.835Z,24.66
2018-06-07T08:17:13.736Z,24.61
2018-06-07T08:18:12.805Z,24.67
2018-06-07T08:19:12.818Z,24.66
2018-06-07T08:20:12.765Z,24.74
2018-06-07T08:21:12.734Z,24.75
2018-06-07T08:22:12.714Z,24.75
2018-06-07T08:23:12.702Z,24.80
2018-06-07T08:24:12.683Z,24.71
2018-06-07T08:25:12.661Z,24.71
2018-06-07T08:26:12.647Z,24.52
2018-06-07T08:27:12.619Z,24.51
2018-06-07T08:28:12.607Z,24.51
2018-06-07T08:29:12.581Z,24.54
2018-06-07T08:30:12.563Z,24.63
2018-06-07T08:31:12.554Z,24.64
2018-06-07T08:32:12.531Z,24.67
2018-06-07T08:33:12.510Z,24.78
2018-06-07T08:34:12.491Z,24.83
2018-06-07T08:35:12.514Z,24.85
2018-06-07T08:36:12.490Z,24.90
2018-06-07T08:37:12.432Z,24.90
2018-06-07T08:38:12.413Z,25.02
2018-06-07T08:39:12.463Z,25.02
2018-06-07T08:40:12.412Z,25.01
2018-06-07T08:41:12.401Z,25.08
2018-06-07T08:42:12.339Z,25.08
2018-06-07T08:43:12.324Z,25.17
2018-06-07T08:44:12.309Z,25.07
2018-06-07T08:45:12.287Z,25.11
2018-06-07T08:46:12.268Z,25.12
2018-06-07T08:47:12.254Z,25.22
2018-06-07T08:48:12.267Z,25.23
2018-06-07T08:49:12.229Z,25.27
2018-06-07T08:50:12.198Z,25.32
2018-06-07T08:51:12.181Z,25.30
2018-06-07T08:52:12.159Z,25.32
2018-06-07T08:53:12.143Z,25.24
2018-06-07T08:54:12.127Z,25.27
2018-06-07T08:55:12.101Z,25.23
2018-06-07T08:56:12.094Z,25.30
2018-06-07T08:57:12.065Z,25.20
2018-06-07T08:58:12.054Z,25.23
2018-06-07T08:59:12.030Z,25.24
2018-06-07T09:00:12.099Z,25.24
2018-06-07T09:01:11.994Z,25.32
2018-06-07T09:02:11.984Z,25.32
2018-06-07T09:03:11.959Z,25.27
2018-06-07T09:04:11.946Z,25.44
2018-06-07T09:05:11.924Z,25.44
2018-06-07T09:06:11.907Z,25.38
2018-06-07T09:07:11.906Z,25.47
2018-06-07T09:08:11.867Z,25.49
2018-06-07T09:09:11.854Z,25.56
2018-06-07T09:10:11.828Z,25.52
2018-06-07T09:11:11.818Z,25.56
2018-06-07T09:12:11.794Z,25.62
2018-06-07T09:13:11.791Z,25.49
2018-06-07T09:14:11.756Z,25.47
2018-06-07T09:15:11.748Z,25.44
2018-06-07T09:16:11.720Z,25.51
2018-06-07T09:17:11.713Z,25.51
2018-06-07T09:18:11.696Z,25.57
2018-06-07T09:19:11.672Z,25.59
2018-06-07T09:20:11.649Z,25.48
2018-06-07T09:21:11.636Z,25.51
2018-06-07T09:22:11.612Z,25.64
2018-06-07T09:23:11.601Z,25.59
2018-06-07T09:24:11.578Z,25.64
2018-06-07T09:25:11.570Z,25.69
2018-06-07T09:26:11.543Z,25.79
2018-06-07T09:27:11.531Z,25.69
2018-06-07T09:28:11.510Z,25.88
2018-06-07T09:29:11.491Z,25.91
2018-06-07T09:30:11.476Z,26.04
2018-06-07T09:31:11.457Z,26.16
2018-06-07T09:32:11.438Z,26.16
2018-06-07T09:33:11.421Z,26.38
2018-06-07T09:34:11.397Z,26.35
2018-06-07T09:35:11.387Z,26.41
2018-06-07T09:36:11.360Z,26.47
2018-06-07T09:37:11.353Z,26.47
2018-06-07T09:38:11.327Z,26.53
2018-06-07T09:39:11.312Z,26.56
2018-06-07T09:40:11.298Z,26.52
2018-06-07T09:41:11.271Z,26.50
2018-06-07T09:42:11.256Z,26.52
2018-06-07T09:43:11.243Z,26.56
2018-06-07T09:44:11.225Z,26.47
2018-06-07T09:45:11.211Z,26.52
2018-06-07T09:46:11.183Z,26.56
2018-06-07T09:47:11.176Z,26.52
2018-06-07T09:48:11.153Z,26.61
2018-06-07T09:49:11.140Z,26.69
2018-06-07T09:50:11.116Z,26.67
2018-06-07T09:51:11.103Z,26.68
2018-06-07T09:52:11.088Z,26.74
2018-06-07T09:53:11.063Z,26.64
2018-06-07T09:54:11.047Z,26.71
2018-06-07T09:55:11.032Z,26.72
2018-06-07T09:56:11.017Z,26.78
2018-06-07T09:57:11.005Z,26.75
2018-06-07T09:58:11.029Z,26.69
2018-06-07T09:59:10.964Z,26.68
2018-06-07T10:00:10.949Z,26.75
2018-06-07T10:01:10.927Z,26.75
2018-06-07T10:02:10.914Z,26.82
2018-06-07T10:03:10.914Z,26.81
2018-06-07T10:04:10.883Z,26.91
2018-06-07T10:05:10.856Z,26.94
2018-06-07T10:06:10.843Z,26.89
2018-06-07T10:07:10.830Z,26.86
2018-06-07T10:08:10.810Z,26.91
2018-06-07T10:09:10.791Z,26.93
2018-06-07T10:10:10.776Z,26.93
2018-06-07T10:11:11.713Z,26.90
2018-06-07T10:12:10.739Z,26.90
2018-06-07T10:13:10.725Z,26.81
2018-06-07T10:14:10.704Z,26.90
2018-06-07T10:15:10.695Z,26.90
2018-06-07T10:16:10.685Z,27.05
2018-06-07T10:17:10.661Z,27.08
2018-06-07T10:18:10.635Z,27.15
2018-06-07T10:19:10.632Z,27.16
2018-06-07T10:20:10.605Z,27.23
2018-06-07T10:21:10.594Z,27.26
2018-06-07T10:22:10.574Z,27.33
2018-06-07T10:23:10.557Z,27.28
2018-06-07T10:24:10.540Z,27.28
2018-06-07T10:25:10.521Z,27.30
2018-06-07T10:26:10.497Z,27.46
2018-06-07T10:27:10.492Z,27.46
2018-06-07T10:28:10.476Z,27.41
2018-06-07T10:29:10.488Z,27.38
2018-06-07T10:30:10.432Z,27.42
2018-06-07T10:31:10.422Z,27.45
2018-06-07T10:32:10.417Z,27.46
2018-06-07T10:33:10.382Z,27.46
2018-06-07T10:34:10.366Z,27.45
2018-06-07T10:35:10.354Z,27.42
2018-06-07T10:36:10.334Z,27.48
2018-06-07T10:37:10.319Z,27.48
2018-06-07T10:38:10.297Z,27.55
2018-06-07T10:39:10.287Z,27.59
2018-06-07T10:40:10.269Z,27.64
2018-06-07T10:41:10.268Z,27.61
2018-06-07T10:42:10.242Z,27.62
2018-06-07T10:43:10.214Z,27.64
2018-06-07T10:44:10.200Z,27.57
2018-06-07T10:45:10.186Z,27.65
2018-06-07T10:46:10.170Z,27.71
2018-06-07T10:47:10.150Z,27.76
2018-06-07T10:48:10.133Z,27.79
2018-06-07T10:49:10.127Z,27.79
2018-06-07T10:50:10.171Z,27.80
2018-06-07T10:51:10.092Z,27.83
2018-06-07T10:52:10.108Z,27.80
2018-06-07T10:53:10.054Z,27.80
2018-06-07T10:54:10.037Z,27.86
2018-06-07T10:55:10.040Z,27.86
2018-06-07T10:56:10.012Z,27.90
2018-06-07T10:57:09.987Z,28.03
2018-06-07T10:58:09.972Z,28.03
2018-06-07T10:59:09.955Z,28.08
2018-06-07T11:00:09.942Z,28.21
2018-06-07T11:01:09.927Z,28.38
2018-06-07T11:02:09.906Z,28.38
2018-06-07T11:03:09.892Z,28.43
2018-06-07T11:04:09.880Z,28.60
2018-06-07T11:05:09.856Z,28.57
2018-06-07T11:06:09.841Z,28.68
2018-06-07T11:07:09.828Z,28.63
2018-06-07T11:08:09.815Z,28.80
2018-06-07T11:09:09.791Z,28.83
2018-06-07T11:10:09.774Z,28.86
2018-06-07T11:11:09.772Z,28.76
2018-06-07T11:12:09.757Z,28.79
2018-06-07T11:13:09.731Z,28.78
2018-06-07T11:14:09.724Z,28.80
2018-06-07T11:15:09.705Z,28.73
2018-06-07T11:16:09.691Z,28.75
2018-06-07T11:17:09.671Z,28.83
2018-06-07T11:18:09.655Z,28.76
2018-06-07T11:19:09.636Z,28.83
2018-06-07T11:20:09.626Z,28.79
2018-06-07T11:21:09.605Z,28.88
2018-06-07T11:22:09.589Z,28.97
2018-06-07T11:23:09.585Z,29.01
2018-06-07T11:24:09.558Z,29.08
2018-06-07T11:25:09.549Z,29.06
2018-06-07T11:26:09.526Z,29.15
2018-06-07T11:27:09.521Z,29.14
2018-06-07T11:28:09.507Z,28.97
2018-06-07T11:29:09.488Z,28.94
2018-06-07T11:30:09.471Z,29.05
2018-06-07T11:31:09.456Z,29.02
2018-06-07T11:32:09.440Z,28.98
2018-06-07T11:33:09.424Z,29.01
2018-06-07T11:34:09.420Z,29.13
2018-06-07T11:35:09.391Z,29.21
2018-06-07T11:36:09.372Z,29.32
2018-06-07T11:37:09.359Z,29.39
2018-06-07T11:38:09.348Z,29.42
2018-06-07T11:39:09.326Z,29.40
2018-06-07T11:40:09.317Z,29.45
2018-06-07T11:41:09.295Z,29.42
2018-06-07T11:42:09.285Z,29.35
2018-06-07T11:43:09.267Z,29.48
2018-06-07T11:44:09.253Z,29.55
2018-06-07T11:45:09.236Z,29.61
2018-06-07T11:46:09.220Z,29.66
2018-06-07T11:47:09.228Z,29.85
2018-06-07T11:48:09.191Z,30.04
2018-06-07T11:49:09.227Z,30.02
2018-06-07T11:50:09.167Z,30.88
2018-06-07T11:51:09.151Z,31.47
2018-06-07T11:52:09.139Z,30.94
2018-06-07T11:53:09.119Z,30.63
2018-06-07T11:54:09.105Z,30.51
2018-06-07T11:55:09.088Z,30.16
2018-06-07T11:56:09.068Z,30.16
2018-06-07T11:57:09.072Z,30.03
2018-06-07T11:58:09.050Z,29.97
2018-06-07T11:59:09.024Z,29.95
2018-06-07T12:00:09.014Z,29.70
2018-06-07T12:01:09.005Z,29.70
2018-06-07T12:02:08.985Z,29.65
2018-06-07T12:03:08.980Z,30.57
2018-06-07T12:04:08.957Z,31.10
2018-06-07T12:05:08.946Z,31.60
2018-06-07T12:06:08.975Z,31.94
2018-06-07T12:07:08.911Z,32.08
2018-06-07T12:08:08.896Z,32.24
2018-06-07T12:09:08.886Z,32.30
2018-06-07T12:10:08.872Z,32.38
2018-06-07T12:11:08.851Z,32.37
2018-06-07T12:12:08.849Z,32.32
2018-06-07T12:13:08.825Z,32.20
2018-06-07T12:14:08.815Z,32.10
2018-06-07T12:15:08.798Z,32.03
2018-06-07T12:16:08.799Z,32.05
2018-06-07T12:17:08.767Z,31.97
2018-06-07T12:18:08.752Z,31.95
2018-06-07T12:19:08.736Z,31.95
2018-06-07T12:20:08.725Z,31.94
2018-06-07T12:21:08.719Z,31.72
2018-06-07T12:22:08.692Z,31.70
2018-06-07T12:23:08.689Z,31.72
2018-06-07T12:24:08.668Z,31.78
2018-06-07T12:25:08.662Z,31.67
2018-06-07T12:26:08.638Z,31.80
2018-06-07T12:27:08.635Z,31.86
2018-06-07T12:28:08.610Z,31.74
2018-06-07T12:29:08.605Z,31.56
2018-06-07T12:30:08.585Z,31.41
2018-06-07T12:31:08.576Z,31.37
2018-06-07T12:32:08.595Z,31.25
2018-06-07T12:33:08.547Z,31.03
2018-06-07T12:34:08.528Z,31.07
2018-06-07T12:35:08.526Z,31.15
2018-06-07T12:36:08.508Z,31.06
2018-06-07T12:37:08.497Z,31.07
2018-06-07T12:38:08.502Z,31.12
2018-06-07T12:39:08.466Z,31.08
2018-06-07T12:40:08.489Z,31.19
2018-06-07T12:41:08.438Z,31.30
2018-06-07T12:42:08.429Z,31.34
2018-06-07T12:43:08.406Z,31.13
2018-06-07T12:44:08.400Z,31.10
2018-06-07T12:45:08.380Z,31.07
2018-06-07T12:46:08.371Z,31.08
2018-06-07T12:47:08.355Z,31.07
2018-06-07T12:48:08.359Z,31.03
2018-06-07T12:49:08.329Z,31.18
2018-06-07T12:50:08.319Z,31.01
2018-06-07T12:51:08.296Z,31.08
2018-06-07T12:52:08.294Z,31.18